Time;durP1;ratioP1;P1;durP2;ratioP2;P2;SDS_P1;SDS_P2;PMS_P1;PMS_P2;Temp;Humidity;BMP_temperature;BMP_pressure;BME280_temperature;BME280_humidity;BME280_pressure;Samples;Min_cycle;Max_cycle;Signal;HPM_P1;HPM_P2
2022/05/25 00:01:48;;;;;;;1.95;0.55;;;21.30;62.60;;;;;;5071237;28;20044;-58
2022/05/25 00:04:13;;;;;;;0.90;0.50;;;21.30;62.60;;;;;;5072239;28;20087;-57
2022/05/25 00:06:40;;;;;;;1.52;0.40;;;21.30;62.70;;;;;;5072458;28;20068;-58
2022/05/25 00:09:05;;;;;;;1.20;0.50;;;21.30;62.70;;;;;;5072662;28;20040;-57
2022/05/25 00:11:31;;;;;;;1.88;0.50;;;21.30;62.70;;;;;;5076285;28;20135;-58
2022/05/25 00:13:56;;;;;;;2.70;0.75;;;21.30;62.70;;;;;;5076064;28;20396;-58
2022/05/25 00:16:22;;;;;;;0.77;0.40;;;21.20;62.60;;;;;;5075279;28;20048;-57
2022/05/25 00:21:32;;;;;;;2.53;0.65;;;21.20;62.60;;;;;;5076038;28;20045;-57
2022/05/25 00:23:57;;;;;;;1.80;0.70;;;21.20;62.60;;;;;;5075021;28;20487;-58
2022/05/25 00:26:23;;;;;;;2.70;0.60;;;21.20;62.60;;;;;;5075841;28;20056;-58
2022/05/25 00:28:48;;;;;;;2.17;0.60;;;21.20;62.60;;;;;;5075558;28;20480;-58
2022/05/25 00:31:14;;;;;;;1.60;0.57;;;21.20;62.60;;;;;;5075067;28;20174;-57
2022/05/25 00:33:40;;;;;;;1.23;0.60;;;21.20;62.60;;;;;;5074919;28;20391;-58
2022/05/25 00:36:05;;;;;;;1.52;0.65;;;21.20;62.70;;;;;;5075246;28;20041;-58
2022/05/25 00:38:31;;;;;;;2.58;0.60;;;21.20;62.70;;;;;;5075045;28;20581;-58
2022/05/25 00:40:57;;;;;;;0.90;0.43;;;21.20;62.70;;;;;;5075198;28;20131;-58
2022/05/25 00:43:22;;;;;;;1.30;0.50;;;21.20;62.70;;;;;;5075469;28;20131;-58
2022/05/25 00:45:55;;;;;;;1.00;0.50;;;21.20;62.70;;;;;;5074702;28;20127;-58
2022/05/25 00:48:43;;;;;;;1.45;0.57;;;21.10;62.60;;;;;;5074640;28;20504;-57
2022/05/25 00:51:13;;;;;;;1.67;0.50;;;21.20;62.60;;;;;;5074417;28;20440;-58
2022/05/25 00:53:48;;;;;;;2.08;0.50;;;21.10;62.60;;;;;;5074324;28;20040;-58
2022/05/25 00:56:15;;;;;;;1.50;0.50;;;21.20;62.60;;;;;;5075563;28;20119;-58
2022/05/25 00:58:42;;;;;;;2.90;0.50;;;21.10;62.60;;;;;;5074449;28;20094;-58
2022/05/25 01:01:08;;;;;;;1.40;0.57;;;21.10;62.90;;;;;;5075360;28;20083;-58
2022/05/25 01:03:33;;;;;;;2.13;0.50;;;21.10;62.60;;;;;;5075085;28;20113;-58
2022/05/25 01:06:08;;;;;;;2.05;0.65;;;21.10;62.60;;;;;;5073986;28;20411;-58
2022/05/25 01:08:43;;;;;;;1.42;0.60;;;21.10;62.60;;;;;;5074937;28;20400;-58
2022/05/25 01:11:18;;;;;;;2.40;0.65;;;21.10;62.60;;;;;;5074886;28;20045;-58
2022/05/25 01:13:53;;;;;;;1.00;0.50;;;21.10;62.60;;;;;;5073047;28;20076;-58
2022/05/25 01:16:41;;;;;;;1.85;0.60;;;21.10;62.60;;;;;;5075223;28;20142;-58
2022/05/25 01:19:46;;;;;;;0.73;0.50;;;21.10;62.50;;;;;;5045195;28;20128;-58
2022/05/25 01:22:48;;;;;;;1.40;0.60;;;21.10;62.50;;;;;;5072955;28;20468;-57
2022/05/25 01:25:36;;;;;;;2.45;0.40;;;21.10;62.60;;;;;;5073796;28;20048;-58
2022/05/25 01:28:10;;;;;;;2.05;0.50;;;21.00;62.50;;;;;;5073882;28;20129;-58
2022/05/25 01:30:36;;;;;;;1.80;0.52;;;21.00;62.60;;;;;;5073997;28;20102;-58
2022/05/25 01:33:15;;;;;;;2.03;0.60;;;21.00;62.60;;;;;;5073059;28;20454;-58
2022/05/25 01:35:56;;;;;;;1.95;0.60;;;21.00;62.60;;;;;;5073156;28;20058;-57
2022/05/25 01:38:44;;;;;;;2.53;0.60;;;21.00;62.50;;;;;;5074699;28;20127;-58
2022/05/25 01:41:15;;;;;;;1.05;0.40;;;21.00;62.50;;;;;;5073100;28;20052;-58
2022/05/25 01:43:57;;;;;;;0.95;0.45;;;21.00;62.50;;;;;;5074182;28;20091;-58
2022/05/25 01:46:34;;;;;;;0.60;0.50;;;21.00;62.50;;;;;;5074612;28;20056;-58
2022/05/25 01:49:03;;;;;;;1.05;0.50;;;21.00;62.50;;;;;;5073261;28;20044;-58
2022/05/25 01:51:52;;;;;;;2.00;0.50;;;21.00;62.50;;;;;;5073295;28;20048;-58
2022/05/25 01:54:20;;;;;;;1.58;0.47;;;21.00;62.50;;;;;;5072251;28;20473;-58
2022/05/25 01:56:47;;;;;;;1.45;0.68;;;21.00;62.50;;;;;;5073062;28;20055;-58
2022/05/25 01:59:13;;;;;;;1.55;0.60;;;20.90;62.50;;;;;;5073268;28;20045;-58
2022/05/25 02:04:40;;;;;;;2.45;0.60;;;21.00;62.40;;;;;;5073522;28;20064;-58
2022/05/25 02:07:15;;;;;;;1.38;0.50;;;20.90;62.40;;;;;;5074040;28;20044;-58
2022/05/25 02:09:50;;;;;;;2.40;0.90;;;20.90;62.40;;;;;;5072661;28;20480;-58
2022/05/25 02:12:42;;;;;;;1.20;0.50;;;20.90;62.40;;;;;;5071781;28;20113;-58
2022/05/25 02:15:44;;;;;;;1.42;0.63;;;20.90;62.40;;;;;;5072571;28;20059;-58
2022/05/25 02:18:21;;;;;;;1.38;0.60;;;20.90;62.30;;;;;;5072721;28;20048;-58
2022/05/25 02:20:51;;;;;;;1.13;0.50;;;20.90;62.30;;;;;;5073120;28;20048;-58
2022/05/25 02:23:37;;;;;;;1.00;0.40;;;20.90;62.30;;;;;;5071899;28;20076;-57
2022/05/25 02:26:14;;;;;;;1.17;0.47;;;20.90;62.30;;;;;;5072433;28;20044;-58
2022/05/25 02:28:45;;;;;;;1.65;0.45;;;20.90;62.40;;;;;;5072770;28;20054;-58
2022/05/25 02:31:14;;;;;;;1.50;0.60;;;20.90;62.40;;;;;;5071550;28;20412;-58
2022/05/25 02:33:43;;;;;;;1.15;0.50;;;20.90;62.40;;;;;;5073161;28;20076;-57
2022/05/25 02:36:09;;;;;;;2.25;0.73;;;20.90;62.40;;;;;;5072381;28;20070;-58
2022/05/25 02:38:37;;;;;;;1.33;0.50;;;20.90;62.40;;;;;;5071669;28;20484;-58
2022/05/25 02:41:26;;;;;;;0.60;0.40;;;20.80;62.30;;;;;;5071657;28;20488;-58
2022/05/25 02:43:52;;;;;;;0.85;0.40;;;20.90;62.30;;;;;;5064174;28;20494;-58
2022/05/25 02:46:17;;;;;;;1.55;0.40;;;20.80;62.30;;;;;;5073039;28;20143;-57
2022/05/25 02:48:43;;;;;;;1.30;0.55;;;20.80;62.30;;;;;;5072989;28;20046;-58
2022/05/25 02:51:08;;;;;;;1.17;0.50;;;20.80;62.30;;;;;;5072588;28;20045;-58
2022/05/25 02:53:34;;;;;;;1.48;0.50;;;20.80;62.30;;;;;;5073318;28;20484;-58
2022/05/25 02:56:01;;;;;;;1.95;0.70;;;20.80;62.30;;;;;;5072836;28;20059;-58
2022/05/25 02:58:27;;;;;;;1.52;0.50;;;20.80;62.30;;;;;;5072547;28;20051;-58
2022/05/25 03:00:53;;;;;;;1.35;0.65;;;20.80;62.30;;;;;;5072481;28;20048;-58
2022/05/25 03:03:19;;;;;;;0.68;0.40;;;20.80;62.20;;;;;;5073127;28;20044;-58
2022/05/25 03:05:44;;;;;;;1.13;0.47;;;20.80;62.80;;;;;;5071968;28;20422;-57
2022/05/25 03:08:10;;;;;;;0.77;0.40;;;20.80;62.20;;;;;;5072953;28;20407;-58
2022/05/25 03:10:36;;;;;;;1.67;0.40;;;20.80;62.20;;;;;;5072700;28;20051;-58
2022/05/25 03:13:03;;;;;;;1.23;0.40;;;20.80;62.20;;;;;;5071734;28;20040;-58
2022/05/25 03:15:28;;;;;;;2.45;0.50;;;20.80;62.20;;;;;;5071343;28;20086;-58
2022/05/25 03:17:54;;;;;;;1.75;0.50;;;20.80;62.20;;;;;;5072550;28;20098;-57
2022/05/25 03:20:19;;;;;;;0.85;0.40;;;20.80;62.20;;;;;;5071322;28;20519;-58
2022/05/25 03:22:45;;;;;;;1.25;0.50;;;20.70;62.20;;;;;;5072478;28;20110;-58
2022/05/25 03:25:11;;;;;;;0.85;0.52;;;20.70;62.20;;;;;;5072821;28;20113;-58
2022/05/25 03:27:37;;;;;;;2.25;0.50;;;20.70;62.20;;;;;;5072178;28;20044;-58
2022/05/25 03:30:04;;;;;;;2.45;0.52;;;20.70;62.20;;;;;;5072162;28;20044;-58
2022/05/25 03:32:30;;;;;;;1.50;0.50;;;20.70;62.20;;;;;;5072740;28;20044;-58
2022/05/25 03:34:55;;;;;;;1.77;0.60;;;20.70;62.20;;;;;;5071773;28;20046;-58
2022/05/25 03:37:21;;;;;;;0.90;0.47;;;20.70;62.20;;;;;;5072675;28;20385;-58
2022/05/25 03:39:46;;;;;;;0.82;0.50;;;20.70;62.20;;;;;;5071716;28;20037;-58
2022/05/25 03:42:12;;;;;;;1.25;0.50;;;20.70;62.20;;;;;;5072390;28;20476;-58
2022/05/25 03:44:38;;;;;;;1.73;0.50;;;20.70;62.20;;;;;;5070858;28;20093;-57
2022/05/25 03:47:04;;;;;;;1.33;0.50;;;20.70;62.10;;;;;;5071300;28;20052;-58
2022/05/25 03:49:29;;;;;;;1.55;0.55;;;20.70;62.10;;;;;;5072454;28;20045;-58
2022/05/25 03:51:55;;;;;;;0.93;0.60;;;20.70;62.10;;;;;;5072231;28;20044;-58
2022/05/25 03:54:20;;;;;;;1.20;0.38;;;20.70;62.10;;;;;;5071932;28;20075;-57
2022/05/25 03:56:46;;;;;;;0.80;0.40;;;20.70;62.10;;;;;;5072024;28;20048;-58
2022/05/25 03:59:11;;;;;;;1.88;0.50;;;20.70;62.10;;;;;;5072143;28;20048;-58
2022/05/25 04:01:37;;;;;;;1.17;0.60;;;20.70;62.10;;;;;;5071087;28;20055;-57
2022/05/25 04:04:03;;;;;;;1.00;0.45;;;20.70;62.10;;;;;;5071877;28;20101;-57
2022/05/25 04:06:28;;;;;;;0.52;0.40;;;20.70;62.10;;;;;;5070854;28;20047;-58
2022/05/25 04:08:53;;;;;;;1.20;0.50;;;20.70;62.30;;;;;;5071148;28;20046;-58
2022/05/25 04:11:19;;;;;;;0.98;0.40;;;20.70;62.10;;;;;;5072262;28;20052;-58
2022/05/25 04:13:44;;;;;;;1.70;0.60;;;20.60;62.00;;;;;;5071717;28;20036;-58
2022/05/25 04:16:10;;;;;;;1.80;0.55;;;20.60;62.00;;;;;;5071309;28;20052;-58
2022/05/25 04:18:36;;;;;;;0.60;0.40;;;20.60;62.00;;;;;;5071893;28;20044;-58
2022/05/25 04:21:01;;;;;;;1.25;0.40;;;20.60;62.00;;;;;;5071570;28;20052;-57
2022/05/25 04:23:28;;;;;;;1.23;0.40;;;20.60;62.00;;;;;;5071528;28;20042;-58
2022/05/25 04:25:53;;;;;;;0.93;0.40;;;20.60;62.10;;;;;;5071819;28;20063;-57
2022/05/25 04:28:20;;;;;;;1.30;0.50;;;20.60;62.10;;;;;;5072111;28;20112;-58
2022/05/25 04:30:45;;;;;;;1.13;0.55;;;20.70;62.10;;;;;;5070963;28;20049;-58
2022/05/25 04:33:11;;;;;;;0.88;0.50;;;20.60;62.00;;;;;;5071794;28;20055;-58
2022/05/25 04:35:36;;;;;;;1.95;0.50;;;20.70;62.00;;;;;;5072078;28;20059;-58
2022/05/25 04:38:02;;;;;;;1.33;0.50;;;20.70;62.10;;;;;;5070937;28;20428;-58
2022/05/25 04:40:32;;;;;;;0.73;0.43;;;20.70;62.00;;;;;;5071932;28;20070;-58
2022/05/25 04:42:59;;;;;;;1.92;0.52;;;20.70;62.00;;;;;;5071366;28;20433;-57
2022/05/25 04:45:26;;;;;;;0.50;0.30;;;20.70;62.00;;;;;;5071063;28;20377;-58
2022/05/25 04:47:52;;;;;;;1.27;0.50;;;20.70;62.00;;;;;;5071553;28;20036;-58
2022/05/25 04:50:19;;;;;;;1.65;0.50;;;20.70;61.90;;;;;;5071092;28;20051;-58
2022/05/25 04:52:44;;;;;;;1.33;0.70;;;20.70;61.90;;;;;;5071515;28;20037;-58
2022/05/25 04:57:19;;;;;;;1.35;0.50;;;20.80;62.00;;;;;;5071814;28;20108;-58
2022/05/25 04:57:56;;;;;;;0.93;0.60;;;20.80;62.00;;;;;;5074073;28;20392;-58
2022/05/25 05:00:21;;;;;;;1.00;0.50;;;20.80;62.00;;;;;;5075338;28;20499;-58
2022/05/25 05:02:47;;;;;;;1.63;0.50;;;20.80;61.90;;;;;;5074988;28;20051;-58
2022/05/25 05:05:14;;;;;;;0.63;0.40;;;20.80;62.00;;;;;;5074475;28;20036;-58
2022/05/25 05:07:40;;;;;;;0.52;0.40;;;20.80;62.00;;;;;;5074831;28;20048;-60
2022/05/25 05:10:06;;;;;;;1.27;0.60;;;20.80;62.00;;;;;;5075188;28;20123;-57
2022/05/25 05:12:31;;;;;;;1.20;0.60;;;20.80;62.00;;;;;;5074561;28;20041;-57
2022/05/25 05:15:00;;;;;;;1.27;0.70;;;20.90;61.90;;;;;;5074890;28;20072;-58
2022/05/25 05:17:25;;;;;;;;;;;20.90;61.90;;;;;;5075529;28;20051;-57
2022/05/25 05:19:51;;;;;;;2.55;0.70;;;20.90;61.90;;;;;;5073601;28;20264;-57
2022/05/25 05:22:17;;;;;;;1.60;0.70;;;20.90;61.90;;;;;;5074856;28;20135;-58
2022/05/25 05:24:42;;;;;;;3.17;0.85;;;20.90;61.90;;;;;;5074254;28;20115;-58
2022/05/25 05:27:08;;;;;;;3.33;0.93;;;20.90;62.00;;;;;;5073820;28;20491;-57
2022/05/25 05:29:34;;;;;;;2.38;0.68;;;20.90;62.00;;;;;;5074330;28;20056;-57
2022/05/25 05:31:59;;;;;;;2.50;0.90;;;21.00;62.10;;;;;;5074609;28;20055;-58
2022/05/25 05:34:28;;;;;;;3.67;0.70;;;21.00;62.00;;;;;;5073923;28;20110;-57
2022/05/25 05:37:00;;;;;;;2.60;0.70;;;21.00;62.10;;;;;;5074724;28;20055;-57
2022/05/25 05:39:27;;;;;;;3.10;0.70;;;21.00;62.20;;;;;;5089465;28;20067;-57
2022/05/25 05:41:58;;;;;;;2.75;0.60;;;21.00;62.20;;;;;;5089808;28;20559;-58
2022/05/25 05:44:26;;;;;;;1.35;0.60;;;21.00;62.20;;;;;;5089551;28;20050;-57
2022/05/25 05:46:51;;;;;;;2.90;0.80;;;21.00;62.30;;;;;;5089215;28;20040;-57
2022/05/25 05:49:17;;;;;;;3.60;0.70;;;21.00;62.20;;;;;;5073953;28;20053;-57
2022/05/25 05:51:42;;;;;;;3.13;0.70;;;21.00;62.20;;;;;;5073319;28;20045;-57
2022/05/25 05:54:08;;;;;;;1.98;0.60;;;21.10;62.40;;;;;;5073081;28;20043;-56
2022/05/25 05:56:34;;;;;;;2.20;0.80;;;21.10;62.50;;;;;;5073886;28;20050;-57
2022/05/25 05:59:00;;;;;;;1.38;0.70;;;21.10;62.60;;;;;;5073510;28;20049;-57
2022/05/25 06:01:25;;;;;;;2.72;0.65;;;21.10;62.70;;;;;;5072752;28;20079;-57
2022/05/25 06:03:51;;;;;;;2.38;0.90;;;21.10;62.80;;;;;;5073165;28;20052;-56
2022/05/25 06:06:16;;;;;;;2.95;0.60;;;21.10;62.90;;;;;;5073421;28;20047;-57
2022/05/25 06:08:46;;;;;;;2.15;0.60;;;21.20;62.90;;;;;;5072720;28;20082;-58
2022/05/25 06:11:13;;;;;;;3.35;0.70;;;21.10;62.80;;;;;;5074022;28;20055;-57
2022/05/25 06:13:39;;;;;;;2.17;1.00;;;21.20;62.90;;;;;;5074033;28;20037;-57
2022/05/25 06:21:33;;;;;;;2.97;0.75;;;21.20;63.10;;;;;;5072338;28;20049;-57
2022/05/25 06:23:59;;;;;;;3.55;0.88;;;21.20;63.10;;;;;;5073170;28;20052;-57
2022/05/25 06:26:27;;;;;;;1.95;0.77;;;21.20;63.10;;;;;;5073460;28;20044;-57
2022/05/25 06:28:52;;;;;;;2.88;1.05;;;21.20;63.20;;;;;;5071980;28;20060;-57
2022/05/25 06:31:19;;;;;;;2.65;0.80;;;21.20;63.20;;;;;;5073349;28;20052;-57
2022/05/25 06:33:45;;;;;;;3.47;1.20;;;21.30;63.30;;;;;;5072913;28;20044;-57
2022/05/25 06:36:19;;;;;;;2.70;1.13;;;21.20;63.40;;;;;;5072512;28;20044;-57
2022/05/25 06:38:45;;;;;;;4.68;0.85;;;21.20;63.40;;;;;;5073080;28;20045;-57
2022/05/25 06:41:11;;;;;;;2.70;0.80;;;21.30;63.50;;;;;;5073245;28;20041;-57
2022/05/25 06:43:36;;;;;;;2.20;0.80;;;21.30;63.50;;;;;;5071976;28;20040;-57
2022/05/25 06:46:02;;;;;;;3.08;0.95;;;21.30;63.60;;;;;;5072813;28;20051;-57
2022/05/25 06:48:27;;;;;;;2.30;0.80;;;21.30;63.60;;;;;;5073119;28;20048;-57
2022/05/25 06:50:53;;;;;;;5.32;1.60;;;21.30;63.60;;;;;;5071983;28;20044;-57
2022/05/25 06:53:19;;;;;;;4.45;1.30;;;21.30;63.60;;;;;;5073008;28;20071;-57
2022/05/25 06:55:45;;;;;;;3.58;1.13;;;21.30;63.60;;;;;;5073034;28;20086;-57
2022/05/25 06:58:11;;;;;;;7.05;1.55;;;21.30;63.60;;;;;;5053690;28;20040;-57
2022/05/25 07:00:36;;;;;;;6.00;1.80;;;21.30;63.50;;;;;;5070789;28;20067;-57
2022/05/25 07:03:02;;;;;;;7.07;1.63;;;21.30;63.60;;;;;;5071936;28;20041;-57
2022/05/25 07:05:28;;;;;;;4.65;1.65;;;21.30;63.70;;;;;;5072203;28;20083;-57
2022/05/25 07:07:54;;;;;;;4.53;1.30;;;21.30;63.80;;;;;;5070440;28;20080;-57
2022/05/25 07:10:19;;;;;;;6.82;2.17;;;21.30;63.90;;;;;;5071272;28;20062;-56
2022/05/25 07:12:45;;;;;;;6.93;1.80;;;21.30;63.90;;;;;;5071808;28;20049;-57
2022/05/25 07:15:10;;;;;;;5.80;1.90;;;21.30;63.70;;;;;;5072083;28;20051;-57
2022/05/25 07:17:36;;;;;;;8.25;1.63;;;21.30;63.60;;;;;;5071736;28;20461;-57
2022/05/25 07:20:03;;;;;;;5.93;1.95;;;21.30;63.60;;;;;;5070272;28;20056;-57
2022/05/25 07:22:28;;;;;;;4.95;1.70;;;21.30;63.50;;;;;;5071608;28;20068;-57
2022/05/25 07:24:54;;;;;;;5.78;1.95;;;21.30;63.50;;;;;;5071238;28;20075;-57
2022/05/25 07:27:19;;;;;;;6.25;1.60;;;21.40;63.40;;;;;;5071874;28;20119;-57
2022/05/25 07:29:45;;;;;;;5.97;1.80;;;21.30;63.30;;;;;;5072012;28;20116;-58
2022/05/25 07:32:11;;;;;;;6.10;1.40;;;21.30;63.40;;;;;;5071607;28;20448;-57
2022/05/25 07:34:40;;;;;;;5.75;1.30;;;21.30;63.40;;;;;;5071241;28;20056;-57
2022/05/25 07:37:15;;;;;;;4.35;1.55;;;21.40;63.40;;;;;;5071427;28;20044;-57
2022/05/25 07:39:47;;;;;;;4.28;1.33;;;21.40;63.40;;;;;;5070140;28;20097;-57
2022/05/25 07:42:13;;;;;;;4.35;1.25;;;21.40;63.40;;;;;;5071003;28;20056;-58
2022/05/25 07:44:44;;;;;;;5.45;1.48;;;21.40;63.50;;;;;;5072333;28;20047;-57
2022/05/25 07:47:10;;;;;;;4.70;1.42;;;21.40;63.40;;;;;;5071428;28;20041;-58
2022/05/25 07:49:35;;;;;;;9.05;1.55;;;21.40;63.50;;;;;;5072108;28;20043;-57
2022/05/25 07:52:02;;;;;;;5.25;1.88;;;21.40;63.30;;;;;;5072325;28;20055;-57
2022/05/25 07:54:27;;;;;;;7.72;1.60;;;21.40;63.20;;;;;;5071854;28;20119;-58
2022/05/25 07:56:54;;;;;;;6.20;1.50;;;21.50;63.10;;;;;;5070993;28;20044;-57
2022/05/25 07:59:19;;;;;;;5.18;1.35;;;21.50;63.10;;;;;;5072553;28;20076;-57
2022/05/25 08:07:17;;;;;;;5.03;1.40;;;21.50;63.10;;;;;;5070362;28;20884;-57
2022/05/25 08:09:43;;;;;;;5.97;1.40;;;21.50;63.10;;;;;;5070674;28;20056;-57
2022/05/25 08:12:09;;;;;;;5.38;1.15;;;21.50;63.00;;;;;;5072250;28;20037;-57
2022/05/25 08:14:34;;;;;;;4.75;1.20;;;21.50;63.00;;;;;;5070294;28;20047;-57
2022/05/25 08:17:00;;;;;;;3.38;1.15;;;21.50;63.00;;;;;;5071881;28;20515;-57
2022/05/25 08:19:26;;;;;;;3.33;1.10;;;21.60;63.00;;;;;;5071857;28;20492;-57
2022/05/25 08:21:54;;;;;;;5.97;1.25;;;21.50;63.00;;;;;;5071054;28;20052;-57
2022/05/25 08:24:19;;;;;;;;;;;21.50;62.90;;;;;;5072723;28;20087;-57
2022/05/25 08:26:45;;;;;;;4.97;1.13;;;21.60;62.90;;;;;;5071878;28;19951;-57
2022/05/25 08:29:10;;;;;;;2.75;0.98;;;21.50;62.80;;;;;;5071487;28;20476;-57
2022/05/25 08:31:36;;;;;;;3.22;1.27;;;21.50;62.80;;;;;;5075589;28;20112;-57
2022/05/25 08:34:03;;;;;;;4.20;1.10;;;21.60;62.80;;;;;;5075347;28;20393;-57
2022/05/25 08:36:29;;;;;;;3.15;0.98;;;21.60;62.80;;;;;;5075115;28;20041;-57
2022/05/25 08:38:55;;;;;;;3.72;1.17;;;21.60;62.70;;;;;;5075550;28;20048;-58
2022/05/25 08:41:24;;;;;;;4.18;1.20;;;21.60;62.70;;;;;;5075342;28;20124;-57
2022/05/25 08:43:50;;;;;;;4.97;1.05;;;21.60;62.60;;;;;;5074566;28;20048;-57
2022/05/25 08:46:18;;;;;;;2.80;1.13;;;21.60;62.60;;;;;;5074519;28;20049;-57
2022/05/25 08:48:44;;;;;;;;;;;21.60;62.50;;;;;;5074121;28;20100;-57
2022/05/25 08:51:12;;;;;;;4.43;1.10;;;21.60;62.50;;;;;;5074965;28;20000;-57
2022/05/25 08:53:38;;;;;;;4.85;1.10;;;21.60;62.50;;;;;;5075653;28;20044;-58
2022/05/25 08:56:38;;;;;;;4.68;1.33;;;21.60;62.50;;;;;;5075268;28;20101;-58
2022/05/25 08:59:38;;;;;;;3.17;0.93;;;21.60;62.50;;;;;;5074212;28;20111;-57
2022/05/25 09:02:12;;;;;;;2.28;0.90;;;21.60;62.40;;;;;;5073932;28;20040;-57
2022/05/25 09:04:53;;;;;;;2.25;0.98;;;21.60;62.50;;;;;;5074251;28;20559;-57
2022/05/25 09:07:52;;;;;;;4.30;0.90;;;21.60;62.40;;;;;;5075048;28;20412;-57
2022/05/25 09:10:18;;;;;;;3.15;1.00;;;21.60;62.40;;;;;;5074593;28;20053;-57
2022/05/25 09:12:52;;;;;;;3.28;1.23;;;21.60;62.40;;;;;;5075043;28;20040;-57
2022/05/25 09:15:24;;;;;;;2.53;1.20;;;21.60;62.40;;;;;;5075268;28;20129;-58
2022/05/25 09:18:02;;;;;;;3.88;1.20;;;21.60;62.40;;;;;;5074058;28;20044;-57
2022/05/25 09:20:33;;;;;;;2.80;0.90;;;21.70;62.40;;;;;;5074651;28;20049;-57
2022/05/25 09:22:58;;;;;;;3.38;1.10;;;21.60;62.30;;;;;;5074771;28;20044;-57
2022/05/25 09:25:24;;;;;;;3.95;1.08;;;21.70;62.30;;;;;;5074334;28;20531;-57
2022/05/25 09:28:03;;;;;;;4.03;0.90;;;21.70;62.20;;;;;;5074698;28;20040;-58
2022/05/25 09:30:29;;;;;;;2.15;0.88;;;21.70;62.20;;;;;;5073759;28;20171;-57
2022/05/25 09:33:11;;;;;;;2.50;1.23;;;21.70;62.20;;;;;;5073796;28;20059;-57
2022/05/25 09:35:42;;;;;;;2.85;0.98;;;21.70;62.20;;;;;;5073831;28;20037;-57
2022/05/25 09:38:16;;;;;;;2.47;0.90;;;21.70;62.20;;;;;;5074934;28;20086;-57
2022/05/25 09:40:45;;;;;;;2.72;0.90;;;21.70;62.20;;;;;;5073572;28;20072;-57
2022/05/25 09:43:14;;;;;;;1.83;0.80;;;21.70;62.20;;;;;;5073957;28;20037;-57
2022/05/25 09:45:44;;;;;;;2.30;1.00;;;21.70;62.20;;;;;;5073729;28;20041;-57
2022/05/25 09:48:26;;;;;;;2.65;0.95;;;21.70;62.20;;;;;;5074169;28;20446;-57
2022/05/25 09:51:02;;;;;;;2.15;1.00;;;21.70;62.10;;;;;;5074289;28;20040;-57
2022/05/25 09:53:36;;;;;;;2.00;0.88;;;21.70;62.10;;;;;;5073518;28;20055;-57
2022/05/25 09:56:05;;;;;;;3.47;0.90;;;21.70;62.20;;;;;;5073078;28;20049;-57
2022/05/25 09:58:39;;;;;;;2.10;0.88;;;21.70;62.20;;;;;;5073116;28;20064;-56
2022/05/25 10:01:32;;;;;;;2.75;0.82;;;21.70;62.10;;;;;;5072967;28;20093;-57
2022/05/25 10:03:58;;;;;;;2.40;1.10;;;21.70;62.10;;;;;;5072524;28;20499;-57
2022/05/25 10:06:35;;;;;;;1.92;0.93;;;21.70;62.10;;;;;;5073368;28;20047;-57
2022/05/25 10:09:23;;;;;;;2.85;1.08;;;21.70;62.10;;;;;;5073991;28;20044;-58
2022/05/25 10:11:55;;;;;;;1.98;0.85;;;21.70;62.10;;;;;;5073873;28;20140;-58
2022/05/25 10:14:27;;;;;;;1.98;0.80;;;21.70;62.10;;;;;;5071794;28;20080;-57
2022/05/25 10:16:54;;;;;;;2.25;0.93;;;21.70;62.00;;;;;;5073215;28;20484;-57
2022/05/25 10:19:20;;;;;;;3.85;1.08;;;21.70;61.90;;;;;;5073507;28;20124;-58
2022/05/25 10:21:58;;;;;;;2.20;1.02;;;21.70;61.60;;;;;;5072283;28;20397;-58
2022/05/25 10:24:28;;;;;;;3.78;1.55;;;21.70;61.10;;;;;;5073803;28;20116;-58
2022/05/25 10:26:58;;;;;;;3.08;1.08;;;21.70;60.90;;;;;;5073373;28;20044;-58
2022/05/25 10:38:11;;;;;;;2.63;1.20;;;21.60;60.20;;;;;;5069926;28;20450;-57
2022/05/25 10:40:37;;;;;;;5.32;1.20;;;21.60;60.10;;;;;;5071712;28;20051;-57
2022/05/25 10:43:03;;;;;;;7.20;1.52;;;21.60;60.10;;;;;;5070772;28;20048;-57
2022/05/25 10:45:39;;;;;;;3.83;1.45;;;21.60;60.50;;;;;;5072117;28;20041;-57
2022/05/25 10:48:15;;;;;;;3.17;1.23;;;21.70;60.60;;;;;;5071981;28;20037;-56
2022/05/25 10:50:45;;;;;;;5.25;1.70;;;21.70;60.80;;;;;;5072101;28;20040;-56
2022/05/25 10:53:22;;;;;;;4.50;1.30;;;21.70;60.80;;;;;;5073146;28;20048;-57
2022/05/25 10:56:10;;;;;;;8.23;2.20;;;21.70;60.80;;;;;;5072029;28;20052;-56
2022/05/25 10:59:02;;;;;;;2.92;1.30;;;21.60;60.80;;;;;;5071982;28;20044;-57
2022/05/25 11:01:51;;;;;;;3.15;1.23;;;21.60;61.00;;;;;;5071965;28;20131;-56
2022/05/25 11:04:41;;;;;;;2.33;1.30;;;21.60;60.90;;;;;;5070898;28;20037;-56
2022/05/25 11:07:21;;;;;;;3.78;1.50;;;21.60;61.00;;;;;;5073789;28;20399;-57
2022/05/25 11:10:20;;;;;;;4.25;1.60;;;21.60;61.10;;;;;;5071179;28;20055;-57
2022/05/25 11:12:55;;;;;;;3.15;1.45;;;21.60;61.20;;;;;;5071227;28;20499;-57
2022/05/25 11:15:48;;;;;;;4.90;1.45;;;21.50;61.30;;;;;;5072875;28;20045;-56
2022/05/25 11:18:22;;;;;;;2.47;1.30;;;21.50;61.40;;;;;;5071496;28;20048;-56
2022/05/25 11:21:20;;;;;;;3.03;1.08;;;21.50;61.50;;;;;;5071795;28;20406;-57
2022/05/25 11:23:56;;;;;;;;;;;21.50;61.60;;;;;;5061711;28;20057;-57
2022/05/25 11:26:39;;;;;;;3.72;1.23;;;21.40;61.60;;;;;;5071948;28;19993;-56
2022/05/25 11:29:18;;;;;;;3.97;1.33;;;21.40;61.60;;;;;;5070358;28;20645;-57
2022/05/25 11:32:15;;;;;;;4.25;1.50;;;21.50;61.70;;;;;;5069589;28;20036;-56
2022/05/25 11:35:09;;;;;;;5.10;1.25;;;21.50;61.80;;;;;;5071636;28;20510;-57
2022/05/25 11:37:50;;;;;;;2.47;1.13;;;21.50;61.80;;;;;;5071431;28;20048;-57
2022/05/25 11:40:41;;;;;;;5.78;1.67;;;21.60;62.10;;;;;;5070796;28;20048;-57
2022/05/25 11:43:42;;;;;;;3.17;1.27;;;21.60;62.10;;;;;;5072165;28;20055;-56
2022/05/25 11:46:18;;;;;;;4.38;1.60;;;21.60;62.10;;;;;;5070079;28;20041;-56
2022/05/25 11:49:05;;;;;;;3.67;1.17;;;21.60;62.10;;;;;;5070566;28;20041;-56
2022/05/25 11:51:55;;;;;;;2.17;1.00;;;21.60;62.20;;;;;;5071563;28;20036;-56
2022/05/25 11:54:41;;;;;;;6.57;1.20;;;21.60;63.00;;;;;;5069869;28;20052;-57
2022/05/25 11:57:30;;;;;;;3.40;1.05;;;21.70;62.30;;;;;;5070393;28;20403;-56
2022/05/25 12:00:30;;;;;;;4.43;1.10;;;21.60;62.30;;;;;;5070675;28;20162;-56
2022/05/25 12:03:03;;;;;;;2.38;1.10;;;21.70;62.30;;;;;;5070073;28;20048;-57
2022/05/25 12:05:40;;;;;;;2.83;1.10;;;21.70;62.30;;;;;;5069662;28;20033;-57
2022/05/25 12:08:08;;;;;;;4.90;1.20;;;21.70;62.40;;;;;;5074904;28;20036;-57
2022/05/25 12:10:42;;;;;;;3.33;1.13;;;21.70;62.40;;;;;;5074705;28;20043;-57
2022/05/25 12:13:22;;;;;;;4.88;1.20;;;21.70;62.50;;;;;;5073502;28;20441;-57
2022/05/25 12:15:55;;;;;;;4.95;1.33;;;21.70;62.50;;;;;;5073428;28;20036;-57
2022/05/25 12:18:39;;;;;;;3.13;1.25;;;21.80;62.60;;;;;;5074210;28;20037;-57
2022/05/25 12:21:17;;;;;;;4.82;1.20;;;21.70;62.50;;;;;;5072319;28;20080;-57
2022/05/25 12:23:49;;;;;;;4.75;1.35;;;21.80;62.60;;;;;;5073790;28;20067;-57
2022/05/25 12:26:22;;;;;;;3.38;1.30;;;21.70;62.50;;;;;;5073606;28;20193;-57
2022/05/25 12:28:48;;;;;;;2.60;1.08;;;21.70;62.50;;;;;;5073588;28;20032;-58
2022/05/25 12:31:20;;;;;;;3.03;1.20;;;21.70;62.50;;;;;;5074324;28;20043;-57
2022/05/25 12:33:45;;;;;;;3.60;1.30;;;21.70;62.50;;;;;;5073936;28;20093;-57
2022/05/25 12:36:11;;;;;;;4.63;1.35;;;21.70;62.50;;;;;;5072829;28;20033;-58
2022/05/25 12:38:38;;;;;;;3.42;1.20;;;21.70;62.40;;;;;;5075670;28;20055;-58
2022/05/25 12:41:35;;;;;;;2.63;1.02;;;21.70;62.40;;;;;;5075030;28;20040;-57
2022/05/25 12:50:02;;;;;;;;;;;21.70;62.40;;;;;;5087847;28;20040;-57
2022/05/25 12:52:27;;;;;;;2.10;1.15;;;21.70;62.30;;;;;;5074195;28;20390;-57
2022/05/25 12:54:58;;;;;;;3.42;1.50;;;21.70;62.40;;;;;;5075005;28;20108;-58
2022/05/25 12:57:35;;;;;;;2.53;1.60;;;21.70;62.30;;;;;;5074717;28;20055;-57
2022/05/25 13:00:13;;;;;;;4.80;1.90;;;21.70;62.20;;;;;;5073780;28;20048;-57
2022/05/25 13:02:40;;;;;;;2.22;1.50;;;21.70;62.20;;;;;;5073191;28;20046;-57
2022/05/25 13:05:08;;;;;;;7.65;1.85;;;21.70;62.00;;;;;;5073736;28;20049;-58
2022/05/25 13:07:46;;;;;;;2.85;1.40;;;21.70;61.90;;;;;;5075170;28;20052;-57
2022/05/25 13:10:20;;;;;;;;;;;21.80;61.90;;;;;;5073041;28;20044;-57
2022/05/25 13:12:47;;;;;;;2.78;1.58;;;21.70;61.80;;;;;;5073590;28;19932;-56
2022/05/25 13:15:17;;;;;;;6.43;1.73;;;21.80;61.90;;;;;;5073160;28;20406;-57
2022/05/25 13:17:53;;;;;;;3.75;1.60;;;21.80;61.80;;;;;;5071770;28;20123;-57
2022/05/25 13:20:28;;;;;;;3.63;1.60;;;21.90;61.70;;;;;;5072817;28;20052;-57
2022/05/25 13:22:58;;;;;;;3.88;1.90;;;21.80;61.60;;;;;;5074258;28;20059;-57
2022/05/25 13:25:31;;;;;;;2.53;1.30;;;21.90;61.60;;;;;;5073654;28;20037;-57
2022/05/25 13:28:27;;;;;;;2.30;1.35;;;21.90;61.50;;;;;;5072129;28;20507;-57
2022/05/25 13:31:14;;;;;;;4.78;1.75;;;22.00;61.60;;;;;;5073205;28;20045;-57
2022/05/25 13:33:41;;;;;;;;;;;22.00;61.50;;;;;;5073150;28;20041;-57
2022/05/25 13:36:19;;;;;;;2.35;1.45;;;22.00;61.50;;;;;;5072824;28;19920;-56
2022/05/25 13:38:56;;;;;;;3.35;1.40;;;22.00;61.50;;;;;;5073082;28;20048;-57
2022/05/25 13:41:28;;;;;;;4.43;1.45;;;22.00;61.50;;;;;;5073253;28;20051;-57